sensor_id;sensor_type;location;lat;lon;timestamp;pressure;altitude;pressure_sealevel;temperature;humidity
28921;BME280;16035;53.594;9.952;2022-07-23T00:00:10;101736.66;;;17.99;57.39
28921;BME280;16035;53.594;9.952;2022-07-23T00:02:11;101742.47;;;17.98;57.41
28921;BME280;16035;53.594;9.952;2022-07-23T00:04:11;101742.16;;;17.99;57.71
28921;BME280;16035;53.594;9.952;2022-07-23T00:06:11;101743.59;;;17.97;57.83
28921;BME280;16035;53.594;9.952;2022-07-23T00:08:12;101743.00;;;18.00;57.54
28921;BME280;16035;53.594;9.952;2022-07-23T00:10:12;101736.41;;;18.01;57.72
28921;BME280;16035;53.594;9.952;2022-07-23T00:12:13;101724.28;;;18.02;57.68
28921;BME280;16035;53.594;9.952;2022-07-23T00:14:13;101720.41;;;18.03;57.72
28921;BME280;16035;53.594;9.952;2022-07-23T00:16:13;101721.22;;;18.03;57.61
28921;BME280;16035;53.594;9.952;2022-07-23T00:18:14;101714.91;;;18.03;57.72
28921;BME280;16035;53.594;9.952;2022-07-23T00:20:14;101711.91;;;18.04;57.76
28921;BME280;16035;53.594;9.952;2022-07-23T00:22:14;101719.09;;;18.00;57.60
28921;BME280;16035;53.594;9.952;2022-07-23T00:24:15;101726.78;;;17.98;57.81
28921;BME280;16035;53.594;9.952;2022-07-23T00:26:15;101721.88;;;17.95;57.68
28921;BME280;16035;53.594;9.952;2022-07-23T00:28:15;101715.53;;;17.94;57.75
28921;BME280;16035;53.594;9.952;2022-07-23T00:30:16;101716.06;;;17.97;57.52
28921;BME280;16035;53.594;9.952;2022-07-23T00:32:16;101726.25;;;17.96;57.42
28921;BME280;16035;53.594;9.952;2022-07-23T00:34:16;101721.31;;;17.93;57.66
28921;BME280;16035;53.594;9.952;2022-07-23T00:36:17;101721.88;;;17.90;57.64
28921;BME280;16035;53.594;9.952;2022-07-23T00:38:17;101718.63;;;17.88;57.38
28921;BME280;16035;53.594;9.952;2022-07-23T00:40:17;101721.69;;;17.81;57.32
28921;BME280;16035;53.594;9.952;2022-07-23T00:42:18;101713.72;;;17.80;57.63
28921;BME280;16035;53.594;9.952;2022-07-23T00:44:24;101708.25;;;17.75;57.69
28921;BME280;16035;53.594;9.952;2022-07-23T00:46:25;101715.41;;;17.76;57.85
28921;BME280;16035;53.594;9.952;2022-07-23T00:48:25;101711.28;;;17.78;57.94
28921;BME280;16035;53.594;9.952;2022-07-23T00:50:26;101714.53;;;17.80;57.93
28921;BME280;16035;53.594;9.952;2022-07-23T00:52:26;101711.78;;;17.80;57.93
28921;BME280;16035;53.594;9.952;2022-07-23T00:54:27;101712.59;;;17.81;57.83
28921;BME280;16035;53.594;9.952;2022-07-23T00:56:28;101704.94;;;17.78;57.72
28921;BME280;16035;53.594;9.952;2022-07-23T00:58:29;101701.38;;;17.77;57.94
28921;BME280;16035;53.594;9.952;2022-07-23T01:00:30;101710.72;;;17.76;57.33
28921;BME280;16035;53.594;9.952;2022-07-23T01:02:30;101708.25;;;17.75;57.98
28921;BME280;16035;53.594;9.952;2022-07-23T01:04:31;101711.53;;;17.72;57.38
28921;BME280;16035;53.594;9.952;2022-07-23T01:06:36;101700.59;;;17.66;58.18
28921;BME280;16035;53.594;9.952;2022-07-23T01:08:37;101706.09;;;17.66;58.11
28921;BME280;16035;53.594;9.952;2022-07-23T01:10:38;101707.19;;;17.65;58.04
28921;BME280;16035;53.594;9.952;2022-07-23T01:12:38;101706.09;;;17.66;58.16
28921;BME280;16035;53.594;9.952;2022-07-23T01:14:39;101698.94;;;17.65;57.89
28921;BME280;16035;53.594;9.952;2022-07-23T01:16:40;101688.81;;;17.61;58.21
28921;BME280;16035;53.594;9.952;2022-07-23T01:18:40;101695.13;;;17.61;58.21
28921;BME280;16035;53.594;9.952;2022-07-23T01:20:41;101690.19;;;17.58;58.34
28921;BME280;16035;53.594;9.952;2022-07-23T01:22:41;101704.50;;;17.60;58.34
28921;BME280;16035;53.594;9.952;2022-07-23T01:24:42;101697.34;;;17.54;58.06
28921;BME280;16035;53.594;9.952;2022-07-23T01:26:44;101698.22;;;17.50;58.36
28921;BME280;16035;53.594;9.952;2022-07-23T01:28:44;101694.59;;;17.54;58.37
28921;BME280;16035;53.594;9.952;2022-07-23T01:30:45;101692.44;;;17.51;58.02
28921;BME280;16035;53.594;9.952;2022-07-23T01:32:46;101693.06;;;17.43;58.29
28921;BME280;16035;53.594;9.952;2022-07-23T01:34:46;101698.25;;;17.44;58.16
28921;BME280;16035;53.594;9.952;2022-07-23T01:36:47;101694.13;;;17.47;58.54
28921;BME280;16035;53.594;9.952;2022-07-23T01:38:47;101685.06;;;17.47;58.14
28921;BME280;16035;53.594;9.952;2022-07-23T01:40:48;101687.56;;;17.43;58.31
28921;BME280;16035;53.594;9.952;2022-07-23T01:42:48;101690.84;;;17.40;58.76
28921;BME280;16035;53.594;9.952;2022-07-23T01:44:49;101687.25;;;17.44;58.62
28921;BME280;16035;53.594;9.952;2022-07-23T01:46:50;101690.25;;;17.48;58.68
28921;BME280;16035;53.594;9.952;2022-07-23T01:48:50;101692.72;;;17.50;58.75
28921;BME280;16035;53.594;9.952;2022-07-23T01:50:51;101689.19;;;17.44;58.35
28921;BME280;16035;53.594;9.952;2022-07-23T01:52:51;101688.06;;;17.45;58.46
28921;BME280;16035;53.594;9.952;2022-07-23T01:54:51;101681.50;;;17.46;58.53
28921;BME280;16035;53.594;9.952;2022-07-23T01:56:52;101677.06;;;17.50;58.59
28921;BME280;16035;53.594;9.952;2022-07-23T01:58:52;101672.91;;;17.53;58.50
28921;BME280;16035;53.594;9.952;2022-07-23T02:00:53;101673.75;;;17.53;58.53
28921;BME280;16035;53.594;9.952;2022-07-23T02:03:02;101671.00;;;17.53;58.25
28921;BME280;16035;53.594;9.952;2022-07-23T02:05:03;101659.75;;;17.50;58.41
28921;BME280;16035;53.594;9.952;2022-07-23T02:07:04;101650.69;;;17.49;58.38
28921;BME280;16035;53.594;9.952;2022-07-23T02:09:05;101658.66;;;17.51;58.60
28921;BME280;16035;53.594;9.952;2022-07-23T02:11:05;101646.56;;;17.52;58.39
28921;BME280;16035;53.594;9.952;2022-07-23T02:13:05;101656.44;;;17.53;58.36
28921;BME280;16035;53.594;9.952;2022-07-23T02:15:06;101655.91;;;17.51;58.28
28921;BME280;16035;53.594;9.952;2022-07-23T02:17:07;101649.59;;;17.50;58.34
28921;BME280;16035;53.594;9.952;2022-07-23T02:19:08;101647.66;;;17.51;58.43
28921;BME280;16035;53.594;9.952;2022-07-23T02:21:08;101654.50;;;17.53;58.48
28921;BME280;16035;53.594;9.952;2022-07-23T02:23:08;101658.38;;;17.52;58.47
28921;BME280;16035;53.594;9.952;2022-07-23T02:25:09;101654.53;;;17.48;58.43
28921;BME280;16035;53.594;9.952;2022-07-23T02:27:09;101643.03;;;17.46;58.44
28921;BME280;16035;53.594;9.952;2022-07-23T02:29:09;101643.88;;;17.41;58.44
28921;BME280;16035;53.594;9.952;2022-07-23T02:31:10;101652.97;;;17.37;58.13
28921;BME280;16035;53.594;9.952;2022-07-23T02:33:10;101646.97;;;17.30;58.66
28921;BME280;16035;53.594;9.952;2022-07-23T02:35:11;101643.94;;;17.31;58.74
28921;BME280;16035;53.594;9.952;2022-07-23T02:37:11;101652.97;;;17.32;58.80
28921;BME280;16035;53.594;9.952;2022-07-23T02:39:12;101655.72;;;17.32;58.80
28921;BME280;16035;53.594;9.952;2022-07-23T02:41:12;101649.16;;;17.33;58.89
28921;BME280;16035;53.594;9.952;2022-07-23T02:43:13;101650.25;;;17.32;58.84
28921;BME280;16035;53.594;9.952;2022-07-23T02:45:13;101646.16;;;17.29;59.14
28921;BME280;16035;53.594;9.952;2022-07-23T02:47:13;101642.34;;;17.25;59.06
28921;BME280;16035;53.594;9.952;2022-07-23T02:49:14;101634.91;;;17.26;59.28
28921;BME280;16035;53.594;9.952;2022-07-23T02:51:14;101647.53;;;17.27;59.26
28921;BME280;16035;53.594;9.952;2022-07-23T02:53:14;101645.91;;;17.26;59.00
28921;BME280;16035;53.594;9.952;2022-07-23T02:55:15;101646.19;;;17.24;59.18
28921;BME280;16035;53.594;9.952;2022-07-23T02:57:15;101636.56;;;17.22;59.24
28921;BME280;16035;53.594;9.952;2022-07-23T02:59:15;101637.13;;;17.18;59.18
28921;BME280;16035;53.594;9.952;2022-07-23T03:01:16;101648.97;;;17.19;59.35
28921;BME280;16035;53.594;9.952;2022-07-23T03:03:16;101647.88;;;17.15;59.36
28921;BME280;16035;53.594;9.952;2022-07-23T03:05:17;101636.63;;;17.11;59.56
28921;BME280;16035;53.594;9.952;2022-07-23T03:07:17;101642.66;;;17.13;59.62
28921;BME280;16035;53.594;9.952;2022-07-23T03:09:18;101633.34;;;17.14;59.58
28921;BME280;16035;53.594;9.952;2022-07-23T03:11:18;101633.34;;;17.14;59.75
28921;BME280;16035;53.594;9.952;2022-07-23T03:13:18;101635.53;;;17.12;59.55
28921;BME280;16035;53.594;9.952;2022-07-23T03:15:19;101631.72;;;17.08;60.23
28921;BME280;16035;53.594;9.952;2022-07-23T03:17:19;101634.41;;;17.13;60.02
28921;BME280;16035;53.594;9.952;2022-07-23T03:19:20;101631.16;;;17.11;59.80
28921;BME280;16035;53.594;9.952;2022-07-23T03:21:20;101629.78;;;17.09;59.81
28921;BME280;16035;53.594;9.952;2022-07-23T03:23:20;101632.25;;;17.05;59.77
28921;BME280;16035;53.594;9.952;2022-07-23T03:25:21;101625.94;;;17.05;59.90
28921;BME280;16035;53.594;9.952;2022-07-23T03:27:23;101631.19;;;17.06;60.14
28921;BME280;16035;53.594;9.952;2022-07-23T03:29:23;101630.59;;;17.09;60.27
28921;BME280;16035;53.594;9.952;2022-07-23T03:31:24;101624.03;;;17.10;60.01
28921;BME280;16035;53.594;9.952;2022-07-23T03:33:24;101627.63;;;17.06;59.97
28921;BME280;16035;53.594;9.952;2022-07-23T03:35:24;101627.06;;;17.04;59.90
28921;BME280;16035;53.594;9.952;2022-07-23T03:37:25;101623.25;;;17.00;60.17
28921;BME280;16035;53.594;9.952;2022-07-23T03:39:25;101624.88;;;17.01;60.14
28921;BME280;16035;53.594;9.952;2022-07-23T03:41:25;101616.63;;;17.01;60.27
28921;BME280;16035;53.594;9.952;2022-07-23T03:43:26;101624.31;;;17.04;60.68
28921;BME280;16035;53.594;9.952;2022-07-23T03:45:26;101624.88;;;17.06;60.25
28921;BME280;16035;53.594;9.952;2022-07-23T03:47:27;101624.28;;;17.09;60.34
28921;BME280;16035;53.594;9.952;2022-07-23T03:49:27;101627.59;;;17.11;60.34
28921;BME280;16035;53.594;9.952;2022-07-23T03:51:27;101625.09;;;17.09;60.26
28921;BME280;16035;53.594;9.952;2022-07-23T03:53:28;101624.03;;;17.10;60.50
28921;BME280;16035;53.594;9.952;2022-07-23T03:55:29;101627.28;;;17.12;60.33
28921;BME280;16035;53.594;9.952;2022-07-23T03:57:29;101632.25;;;17.10;60.48
28921;BME280;16035;53.594;9.952;2022-07-23T03:59:29;101633.06;;;17.11;60.22
28921;BME280;16035;53.594;9.952;2022-07-23T04:01:30;101630.88;;;17.08;60.47
28921;BME280;16035;53.594;9.952;2022-07-23T04:03:30;101638.56;;;17.11;60.36
28921;BME280;16035;53.594;9.952;2022-07-23T04:05:30;101640.75;;;17.09;60.21
28921;BME280;16035;53.594;9.952;2022-07-23T04:07:31;101642.44;;;17.05;60.34
28921;BME280;16035;53.594;9.952;2022-07-23T04:09:31;101642.44;;;17.05;60.47
28921;BME280;16035;53.594;9.952;2022-07-23T04:11:32;101636.09;;;17.09;60.72
28921;BME280;16035;53.594;9.952;2022-07-23T04:13:32;101638.25;;;17.17;60.84
28921;BME280;16035;53.594;9.952;2022-07-23T04:15:32;101640.13;;;17.22;60.71
28921;BME280;16035;53.594;9.952;2022-07-23T04:17:33;101643.72;;;17.23;60.52
28921;BME280;16035;53.594;9.952;2022-07-23T04:19:33;101644.78;;;17.27;60.59
28921;BME280;16035;53.594;9.952;2022-07-23T04:21:35;101645.38;;;17.24;60.51
28921;BME280;16035;53.594;9.952;2022-07-23T04:23:36;101650.88;;;17.18;60.42
28921;BME280;16035;53.594;9.952;2022-07-23T04:25:36;101653.38;;;17.10;60.77
28921;BME280;16035;53.594;9.952;2022-07-23T04:27:36;101656.97;;;17.05;60.62
28921;BME280;16035;53.594;9.952;2022-07-23T04:29:37;101649.34;;;16.97;60.86
28921;BME280;16035;53.594;9.952;2022-07-23T04:31:37;101651.81;;;16.99;61.39
28921;BME280;16035;53.594;9.952;2022-07-23T04:33:37;101657.81;;;17.06;61.46
28921;BME280;16035;53.594;9.952;2022-07-23T04:35:38;101658.31;;;17.13;61.41
28921;BME280;16035;53.594;9.952;2022-07-23T04:37:38;101655.84;;;17.16;61.19
28921;BME280;16035;53.594;9.952;2022-07-23T04:39:38;101649.22;;;17.17;61.14
28921;BME280;16035;53.594;9.952;2022-07-23T04:41:39;101661.28;;;17.22;61.08
28921;BME280;16035;53.594;9.952;2022-07-23T04:43:39;101654.72;;;17.17;61.04
28921;BME280;16035;53.594;9.952;2022-07-23T04:45:39;101653.38;;;17.15;61.18
28921;BME280;16035;53.594;9.952;2022-07-23T04:47:40;101666.56;;;17.13;61.32
28921;BME280;16035;53.594;9.952;2022-07-23T04:49:40;101669.03;;;17.09;61.27
28921;BME280;16035;53.594;9.952;2022-07-23T04:51:41;101663.88;;;17.03;61.60
28921;BME280;16035;53.594;9.952;2022-07-23T04:53:41;101666.91;;;17.01;61.77
28921;BME280;16035;53.594;9.952;2022-07-23T04:55:41;101665.84;;;16.97;61.51
28921;BME280;16035;53.594;9.952;2022-07-23T04:57:42;101662.00;;;16.93;61.58
28921;BME280;16035;53.594;9.952;2022-07-23T04:59:42;101651.84;;;16.88;61.81
28921;BME280;16035;53.594;9.952;2022-07-23T05:01:42;101657.06;;;16.90;61.90
28921;BME280;16035;53.594;9.952;2022-07-23T05:03:43;101660.09;;;16.88;61.76
28921;BME280;16035;53.594;9.952;2022-07-23T05:05:43;101654.03;;;16.91;62.02
28921;BME280;16035;53.594;9.952;2022-07-23T05:07:43;101665.81;;;16.92;61.81
28921;BME280;16035;53.594;9.952;2022-07-23T05:09:44;101658.72;;;16.86;61.75
28921;BME280;16035;53.594;9.952;2022-07-23T05:11:44;101667.25;;;16.84;62.03
28921;BME280;16035;53.594;9.952;2022-07-23T05:13:47;101659.53;;;16.86;61.88
28921;BME280;16035;53.594;9.952;2022-07-23T05:15:47;101662.25;;;16.91;62.26
28921;BME280;16035;53.594;9.952;2022-07-23T05:17:48;101655.69;;;16.92;62.18
28921;BME280;16035;53.594;9.952;2022-07-23T05:19:48;101649.09;;;16.93;62.13
28921;BME280;16035;53.594;9.952;2022-07-23T05:21:48;101647.16;;;16.94;61.81
28921;BME280;16035;53.594;9.952;2022-07-23T05:23:49;101660.06;;;16.93;61.91
28921;BME280;16035;53.594;9.952;2022-07-23T05:25:49;101667.50;;;16.93;62.12
28921;BME280;16035;53.594;9.952;2022-07-23T05:27:50;101663.63;;;16.94;62.44
28921;BME280;16035;53.594;9.952;2022-07-23T05:29:50;101665.00;;;16.97;62.20
28921;BME280;16035;53.594;9.952;2022-07-23T05:31:50;101673.22;;;17.02;62.26
28921;BME280;16035;53.594;9.952;2022-07-23T05:33:51;101680.63;;;17.06;61.90
28921;BME280;16035;53.594;9.952;2022-07-23T05:35:51;101672.91;;;17.08;62.19
28921;BME280;16035;53.594;9.952;2022-07-23T05:37:51;101668.53;;;17.07;62.21
28921;BME280;16035;53.594;9.952;2022-07-23T05:39:53;101678.94;;;17.10;61.94
28921;BME280;16035;53.594;9.952;2022-07-23T05:41:53;101676.72;;;17.12;61.64
28921;BME280;16035;53.594;9.952;2022-07-23T05:43:53;101677.28;;;17.14;61.85
28921;BME280;16035;53.594;9.952;2022-07-23T05:45:54;101677.50;;;17.18;61.63
28921;BME280;16035;53.594;9.952;2022-07-23T05:47:54;101676.66;;;17.23;61.86
28921;BME280;16035;53.594;9.952;2022-07-23T05:49:55;101674.47;;;17.25;61.40
28921;BME280;16035;53.594;9.952;2022-07-23T05:51:56;101675.81;;;17.27;61.43
28921;BME280;16035;53.594;9.952;2022-07-23T05:53:56;101665.91;;;17.31;61.50
28921;BME280;16035;53.594;9.952;2022-07-23T05:55:56;101667.81;;;17.36;61.60
28921;BME280;16035;53.594;9.952;2022-07-23T05:57:58;101673.81;;;17.43;61.51
28921;BME280;16035;53.594;9.952;2022-07-23T05:59:58;101669.94;;;17.44;61.37
28921;BME280;16035;53.594;9.952;2022-07-23T06:01:58;101671.88;;;17.43;61.20
28921;BME280;16035;53.594;9.952;2022-07-23T06:03:59;101669.94;;;17.44;61.19
28921;BME280;16035;53.594;9.952;2022-07-23T06:05:59;101676.81;;;17.47;61.24
28921;BME280;16035;53.594;9.952;2022-07-23T06:07:59;101685.31;;;17.50;61.42
28921;BME280;16035;53.594;9.952;2022-07-23T06:10:00;101680.06;;;17.54;61.25
28921;BME280;16035;53.594;9.952;2022-07-23T06:12:00;101681.16;;;17.53;60.90
28921;BME280;16035;53.594;9.952;2022-07-23T06:14:00;101686.13;;;17.51;61.21
28921;BME280;16035;53.594;9.952;2022-07-23T06:16:01;101678.72;;;17.51;61.21
28921;BME280;16035;53.594;9.952;2022-07-23T06:18:01;101683.66;;;17.49;60.66
28921;BME280;16035;53.594;9.952;2022-07-23T06:20:02;101687.25;;;17.44;60.93
28921;BME280;16035;53.594;9.952;2022-07-23T06:22:02;101683.63;;;17.54;61.30
28921;BME280;16035;53.594;9.952;2022-07-23T06:24:02;101681.91;;;17.63;60.29
28921;BME280;16035;53.594;9.952;2022-07-23T06:26:03;101686.09;;;17.56;60.67
28921;BME280;16035;53.594;9.952;2022-07-23T06:28:03;101684.13;;;17.61;61.04
28921;BME280;16035;53.594;9.952;2022-07-23T06:30:04;101690.16;;;17.63;60.77
28921;BME280;16035;53.594;9.952;2022-07-23T06:32:06;101680.00;;;17.59;60.75
28921;BME280;16035;53.594;9.952;2022-07-23T06:34:07;101681.44;;;17.56;60.38
28921;BME280;16035;53.594;9.952;2022-07-23T06:36:07;101686.91;;;17.56;60.78
28921;BME280;16035;53.594;9.952;2022-07-23T06:38:07;101679.50;;;17.57;60.66
28921;BME280;16035;53.594;9.952;2022-07-23T06:40:08;101686.88;;;17.61;61.18
28921;BME280;16035;53.594;9.952;2022-07-23T06:42:09;101679.97;;;17.69;60.98
28921;BME280;16035;53.594;9.952;2022-07-23T06:44:10;101695.06;;;17.72;60.56
28921;BME280;16035;53.594;9.952;2022-07-23T06:46:10;101691.81;;;17.64;60.74
28921;BME280;16035;53.594;9.952;2022-07-23T06:48:11;101695.66;;;17.68;60.67
28921;BME280;16035;53.594;9.952;2022-07-23T06:50:11;101700.31;;;17.68;60.70
28921;BME280;16035;53.594;9.952;2022-07-23T06:52:11;101697.81;;;17.72;60.99
28921;BME280;16035;53.594;9.952;2022-07-23T06:54:12;101693.41;;;17.71;60.69
28921;BME280;16035;53.594;9.952;2022-07-23T06:56:12;101687.41;;;17.68;60.77
28921;BME280;16035;53.594;9.952;2022-07-23T06:58:13;101700.53;;;17.72;61.01
28921;BME280;16035;53.594;9.952;2022-07-23T07:00:14;101696.44;;;17.74;60.68
28921;BME280;16035;53.594;9.952;2022-07-23T07:02:14;101699.72;;;17.76;60.25
28921;BME280;16035;53.594;9.952;2022-07-23T07:04:15;101701.69;;;17.65;59.92
28921;BME280;16035;53.594;9.952;2022-07-23T07:06:15;101693.75;;;17.59;60.67
28921;BME280;16035;53.594;9.952;2022-07-23T07:08:15;101707.19;;;17.65;60.72
28921;BME280;16035;53.594;9.952;2022-07-23T07:10:16;101708.28;;;17.69;60.89
28921;BME280;16035;53.594;9.952;2022-07-23T07:12:17;101711.00;;;17.75;60.58
28921;BME280;16035;53.594;9.952;2022-07-23T07:14:18;101725.56;;;17.75;60.75
28921;BME280;16035;53.594;9.952;2022-07-23T07:16:19;101716.63;;;17.49;60.24
28921;BME280;16035;53.594;9.952;2022-07-23T07:18:19;101730.00;;;17.16;60.86
28921;BME280;16035;53.594;9.952;2022-07-23T07:20:19;101735.88;;;16.89;61.67
28921;BME280;16035;53.594;9.952;2022-07-23T07:22:20;101736.44;;;16.71;62.26
28921;BME280;16035;53.594;9.952;2022-07-23T07:24:20;101733.97;;;16.64;62.84
28921;BME280;16035;53.594;9.952;2022-07-23T07:26:21;101732.59;;;16.77;63.65
28921;BME280;16035;53.594;9.952;2022-07-23T07:28:21;101732.81;;;17.01;63.98
28921;BME280;16035;53.594;9.952;2022-07-23T07:30:21;101736.31;;;17.17;63.32
28921;BME280;16035;53.594;9.952;2022-07-23T07:32:22;101731.91;;;17.21;63.36
28921;BME280;16035;53.594;9.952;2022-07-23T07:34:22;101732.69;;;17.27;63.42
28921;BME280;16035;53.594;9.952;2022-07-23T07:36:23;101727.97;;;17.37;63.45
28921;BME280;16035;53.594;9.952;2022-07-23T07:38:23;101732.09;;;17.35;62.48
28921;BME280;16035;53.594;9.952;2022-07-23T07:40:24;101733.25;;;17.29;63.06
28921;BME280;16035;53.594;9.952;2022-07-23T07:42:24;101724.66;;;17.40;62.92
28921;BME280;16035;53.594;9.952;2022-07-23T07:44:25;101720.25;;;17.39;62.63
28921;BME280;16035;53.594;9.952;2022-07-23T07:46:25;101719.16;;;17.40;62.59
28921;BME280;16035;53.594;9.952;2022-07-23T07:48:27;101723.97;;;17.64;62.80
28921;BME280;16035;53.594;9.952;2022-07-23T07:50:28;101719.22;;;17.80;62.13
28921;BME280;16035;53.594;9.952;2022-07-23T07:52:28;101712.31;;;17.87;62.19
28921;BME280;16035;53.594;9.952;2022-07-23T07:54:28;101720.56;;;18.22;61.85
28921;BME280;16035;53.594;9.952;2022-07-23T07:56:29;101721.28;;;18.32;61.71
28921;BME280;16035;53.594;9.952;2022-07-23T07:58:29;101721.56;;;18.31;60.68
28921;BME280;16035;53.594;9.952;2022-07-23T08:00:30;101714.41;;;18.30;61.34
28921;BME280;16035;53.594;9.952;2022-07-23T08:02:45;101724.16;;;18.46;60.94
28921;BME280;16035;53.594;9.952;2022-07-23T08:04:46;101720.78;;;18.54;60.48
28921;BME280;16035;53.594;9.952;2022-07-23T08:06:46;101725.00;;;18.47;60.13
28921;BME280;16035;53.594;9.952;2022-07-23T08:08:47;101726.78;;;18.32;60.01
28921;BME280;16035;53.594;9.952;2022-07-23T08:10:48;101730.03;;;18.05;59.91
28921;BME280;16035;53.594;9.952;2022-07-23T08:12:50;101729.97;;;17.71;60.64
28921;BME280;16035;53.594;9.952;2022-07-23T08:14:51;101728.75;;;17.48;61.10
28921;BME280;16035;53.594;9.952;2022-07-23T08:16:52;101735.38;;;17.42;61.97
28921;BME280;16035;53.594;9.952;2022-07-23T08:18:53;101723.81;;;17.45;62.23
28921;BME280;16035;53.594;9.952;2022-07-23T08:20:53;101732.88;;;17.46;61.85
28921;BME280;16035;53.594;9.952;2022-07-23T08:22:59;101737.34;;;17.31;61.93
28921;BME280;16035;53.594;9.952;2022-07-23T08:24:59;101736.53;;;17.31;62.10
28921;BME280;16035;53.594;9.952;2022-07-23T08:27:00;101736.22;;;17.37;62.88
28921;BME280;16035;53.594;9.952;2022-07-23T08:29:00;101731.44;;;17.53;62.88
28921;BME280;16035;53.594;9.952;2022-07-23T08:31:01;101728.38;;;17.65;63.05
28921;BME280;16035;53.594;9.952;2022-07-23T08:33:08;101728.25;;;17.85;62.81
28921;BME280;16035;53.594;9.952;2022-07-23T08:35:11;101722.13;;;17.93;61.76
28921;BME280;16035;53.594;9.952;2022-07-23T08:37:11;101731.41;;;18.03;62.17
28921;BME280;16035;53.594;9.952;2022-07-23T08:39:12;101733.25;;;18.17;61.53
28921;BME280;16035;53.594;9.952;2022-07-23T08:41:12;101732.13;;;18.18;61.02
28921;BME280;16035;53.594;9.952;2022-07-23T08:43:19;101739.78;;;18.27;61.36
28921;BME280;16035;53.594;9.952;2022-07-23T08:45:21;101717.66;;;18.37;61.22
28921;BME280;16035;53.594;9.952;2022-07-23T08:47:21;101731.84;;;18.49;60.48
28921;BME280;16035;53.594;9.952;2022-07-23T08:49:22;101721.66;;;18.50;58.38
28921;BME280;16035;53.594;9.952;2022-07-23T08:51:25;101718.09;;;18.49;58.65
28921;BME280;16035;53.594;9.952;2022-07-23T08:53:28;101708.81;;;18.69;58.36
28921;BME280;16035;53.594;9.952;2022-07-23T08:55:28;101714.88;;;18.95;58.70
28921;BME280;16035;53.594;9.952;2022-07-23T08:57:29;101714.34;;;19.36;57.62
28921;BME280;16035;53.594;9.952;2022-07-23T08:59:29;101718.41;;;19.62;57.22
28921;BME280;16035;53.594;9.952;2022-07-23T09:01:30;101720.50;;;19.71;55.88
28921;BME280;16035;53.594;9.952;2022-07-23T09:03:35;101719.44;;;19.66;55.38
28921;BME280;16035;53.594;9.952;2022-07-23T09:05:36;101713.13;;;19.66;55.22
28921;BME280;16035;53.594;9.952;2022-07-23T09:07:37;101716.91;;;19.89;55.49
28921;BME280;16035;53.594;9.952;2022-07-23T09:09:38;101712.19;;;19.89;55.31
28921;BME280;16035;53.594;9.952;2022-07-23T09:11:39;101713.63;;;19.87;54.51
28921;BME280;16035;53.594;9.952;2022-07-23T09:15:50;101707.91;;;20.62;54.87
28921;BME280;16035;53.594;9.952;2022-07-23T09:17:51;101718.16;;;20.76;53.65
28921;BME280;16035;53.594;9.952;2022-07-23T09:19:51;101710.97;;;20.61;53.31
28921;BME280;16035;53.594;9.952;2022-07-23T09:22:26;101719.47;;;20.51;53.38
28921;BME280;16035;53.594;9.952;2022-07-23T09:24:27;101714.22;;;20.49;53.63
28921;BME280;16035;53.594;9.952;2022-07-23T09:26:38;101713.34;;;20.35;53.39
28921;BME280;16035;53.594;9.952;2022-07-23T09:31:01;101712.94;;;20.60;53.82
28921;BME280;16035;53.594;9.952;2022-07-23T09:33:05;101710.59;;;20.67;53.32
28921;BME280;16035;53.594;9.952;2022-07-23T09:35:06;101717.44;;;20.70;52.52
28921;BME280;16035;53.594;9.952;2022-07-23T09:37:14;101721.53;;;20.59;53.16
28921;BME280;16035;53.594;9.952;2022-07-23T09:39:22;101720.88;;;20.48;53.02
28921;BME280;16035;53.594;9.952;2022-07-23T09:41:24;101724.00;;;20.28;52.81
28921;BME280;16035;53.594;9.952;2022-07-23T09:43:27;101718.66;;;19.99;53.27
28921;BME280;16035;53.594;9.952;2022-07-23T09:45:28;101729.56;;;19.90;53.95
28921;BME280;16035;53.594;9.952;2022-07-23T09:47:31;101727.28;;;19.78;53.84
28921;BME280;16035;53.594;9.952;2022-07-23T09:49:32;101727.56;;;19.77;54.23
28921;BME280;16035;53.594;9.952;2022-07-23T09:51:44;101736.50;;;19.87;54.12
28921;BME280;16035;53.594;9.952;2022-07-23T09:53:44;101731.44;;;20.27;54.34
28921;BME280;16035;53.594;9.952;2022-07-23T09:55:44;101727.34;;;20.25;52.92
28921;BME280;16035;53.594;9.952;2022-07-23T09:57:46;101732.59;;;20.07;53.30
28921;BME280;16035;53.594;9.952;2022-07-23T09:59:50;101738.88;;;19.94;52.99
28921;BME280;16035;53.594;9.952;2022-07-23T10:01:53;101738.34;;;19.73;53.27
28921;BME280;16035;53.594;9.952;2022-07-23T10:03:54;101738.25;;;19.64;53.80
28921;BME280;16035;53.594;9.952;2022-07-23T10:05:55;101742.00;;;19.68;53.45
28921;BME280;16035;53.594;9.952;2022-07-23T10:07:57;101738.53;;;19.63;53.35
28921;BME280;16035;53.594;9.952;2022-07-23T10:10:00;101744.31;;;19.42;53.47
28921;BME280;16035;53.594;9.952;2022-07-23T10:12:05;101746.13;;;19.28;53.77
28921;BME280;16035;53.594;9.952;2022-07-23T10:14:08;101747.00;;;19.24;53.74
28921;BME280;16035;53.594;9.952;2022-07-23T10:16:09;101748.22;;;19.36;54.43
28921;BME280;16035;53.594;9.952;2022-07-23T10:18:10;101735.66;;;20.06;54.57
28921;BME280;16035;53.594;9.952;2022-07-23T10:20:12;101751.00;;;20.63;53.51
28921;BME280;16035;53.594;9.952;2022-07-23T10:22:27;101744.75;;;20.72;52.50
28921;BME280;16035;53.594;9.952;2022-07-23T10:24:49;101739.03;;;20.68;52.08
28921;BME280;16035;53.594;9.952;2022-07-23T10:27:01;101745.16;;;20.65;51.78
28921;BME280;16035;53.594;9.952;2022-07-23T10:29:28;101744.44;;;20.59;51.71
28921;BME280;16035;53.594;9.952;2022-07-23T10:31:50;101745.56;;;20.58;51.00
28921;BME280;16035;53.594;9.952;2022-07-23T10:38:30;101753.56;;;20.87;51.22
28921;BME280;16035;53.594;9.952;2022-07-23T10:40:31;101736.16;;;21.28;52.10
28921;BME280;16035;53.594;9.952;2022-07-23T10:42:33;101748.63;;;21.53;51.06